sensor_id;sensor_type;location;lat;lon;timestamp;P1;durP1;ratioP1;P2;durP2;ratioP2
67941;SDS011;54731;42.600;23.476;2023-07-31T00:01:19;3.87;;;2.93;;
67941;SDS011;54731;42.600;23.476;2023-07-31T00:03:45;6.07;;;3.13;;
67941;SDS011;54731;42.600;23.476;2023-07-31T00:06:11;4.03;;;2.90;;
67941;SDS011;54731;42.600;23.476;2023-07-31T00:08:36;5.67;;;3.03;;
67941;SDS011;54731;42.600;23.476;2023-07-31T00:11:01;4.47;;;3.23;;
67941;SDS011;54731;42.600;23.476;2023-07-31T00:13:27;5.00;;;2.87;;
67941;SDS011;54731;42.600;23.476;2023-07-31T00:15:52;5.10;;;2.90;;
67941;SDS011;54731;42.600;23.476;2023-07-31T00:18:17;4.97;;;2.90;;
67941;SDS011;54731;42.600;23.476;2023-07-31T00:20:43;4.17;;;3.07;;
67941;SDS011;54731;42.600;23.476;2023-07-31T00:23:08;6.47;;;3.10;;
67941;SDS011;54731;42.600;23.476;2023-07-31T00:25:34;3.70;;;3.00;;
67941;SDS011;54731;42.600;23.476;2023-07-31T00:28:00;3.60;;;2.93;;
67941;SDS011;54731;42.600;23.476;2023-07-31T00:30:25;4.27;;;3.13;;
67941;SDS011;54731;42.600;23.476;2023-07-31T00:32:50;3.30;;;3.00;;
67941;SDS011;54731;42.600;23.476;2023-07-31T00:35:16;4.27;;;3.53;;
67941;SDS011;54731;42.600;23.476;2023-07-31T00:37:41;7.20;;;3.43;;
67941;SDS011;54731;42.600;23.476;2023-07-31T00:40:06;4.10;;;3.27;;
67941;SDS011;54731;42.600;23.476;2023-07-31T00:42:32;4.72;;;2.97;;
67941;SDS011;54731;42.600;23.476;2023-07-31T00:44:58;3.90;;;3.20;;
67941;SDS011;54731;42.600;23.476;2023-07-31T00:47:23;5.53;;;3.60;;
67941;SDS011;54731;42.600;23.476;2023-07-31T00:49:48;5.60;;;3.20;;
67941;SDS011;54731;42.600;23.476;2023-07-31T00:52:14;5.63;;;3.43;;
67941;SDS011;54731;42.600;23.476;2023-07-31T00:54:39;5.55;;;3.35;;
67941;SDS011;54731;42.600;23.476;2023-07-31T00:57:05;5.10;;;3.65;;
67941;SDS011;54731;42.600;23.476;2023-07-31T00:59:30;4.60;;;3.03;;
67941;SDS011;54731;42.600;23.476;2023-07-31T01:01:55;4.57;;;3.60;;
67941;SDS011;54731;42.600;23.476;2023-07-31T01:04:21;4.73;;;3.40;;
67941;SDS011;54731;42.600;23.476;2023-07-31T01:06:56;5.00;;;3.33;;
67941;SDS011;54731;42.600;23.476;2023-07-31T01:11:53;4.90;;;3.40;;
67941;SDS011;54731;42.600;23.476;2023-07-31T01:14:22;4.00;;;3.30;;
67941;SDS011;54731;42.600;23.476;2023-07-31T01:16:47;5.10;;;4.20;;
67941;SDS011;54731;42.600;23.476;2023-07-31T01:19:13;4.67;;;4.03;;
67941;SDS011;54731;42.600;23.476;2023-07-31T01:27:04;4.63;;;3.73;;
67941;SDS011;54731;42.600;23.476;2023-07-31T01:32:12;5.75;;;4.82;;
67941;SDS011;54731;42.600;23.476;2023-07-31T01:34:39;5.40;;;4.40;;
67941;SDS011;54731;42.600;23.476;2023-07-31T01:37:06;5.68;;;4.88;;
67941;SDS011;54731;42.600;23.476;2023-07-31T01:39:31;7.23;;;5.70;;
67941;SDS011;54731;42.600;23.476;2023-07-31T01:41:57;5.57;;;4.97;;
67941;SDS011;54731;42.600;23.476;2023-07-31T01:44:22;6.43;;;5.70;;
67941;SDS011;54731;42.600;23.476;2023-07-31T01:46:47;9.55;;;6.50;;
67941;SDS011;54731;42.600;23.476;2023-07-31T01:49:13;10.37;;;8.40;;
67941;SDS011;54731;42.600;23.476;2023-07-31T01:51:38;11.60;;;9.47;;
67941;SDS011;54731;42.600;23.476;2023-07-31T01:54:03;12.53;;;10.17;;
67941;SDS011;54731;42.600;23.476;2023-07-31T01:56:29;11.53;;;10.20;;
67941;SDS011;54731;42.600;23.476;2023-07-31T01:58:54;18.77;;;11.47;;
67941;SDS011;54731;42.600;23.476;2023-07-31T02:01:19;14.60;;;12.20;;
67941;SDS011;54731;42.600;23.476;2023-07-31T02:03:45;16.85;;;13.77;;
67941;SDS011;54731;42.600;23.476;2023-07-31T02:06:10;17.92;;;14.48;;
67941;SDS011;54731;42.600;23.476;2023-07-31T02:08:35;17.03;;;15.23;;
67941;SDS011;54731;42.600;23.476;2023-07-31T02:11:01;19.27;;;16.97;;
67941;SDS011;54731;42.600;23.476;2023-07-31T02:13:26;20.07;;;17.77;;
67941;SDS011;54731;42.600;23.476;2023-07-31T02:15:51;22.37;;;18.27;;
67941;SDS011;54731;42.600;23.476;2023-07-31T02:18:17;23.77;;;19.60;;
67941;SDS011;54731;42.600;23.476;2023-07-31T02:20:42;25.10;;;20.03;;
67941;SDS011;54731;42.600;23.476;2023-07-31T02:23:07;26.00;;;20.40;;
67941;SDS011;54731;42.600;23.476;2023-07-31T02:25:33;24.85;;;21.00;;
67941;SDS011;54731;42.600;23.476;2023-07-31T02:27:58;26.77;;;21.27;;
67941;SDS011;54731;42.600;23.476;2023-07-31T02:30:23;27.70;;;21.87;;
67941;SDS011;54731;42.600;23.476;2023-07-31T02:32:49;24.97;;;21.53;;
67941;SDS011;54731;42.600;23.476;2023-07-31T02:35:14;25.70;;;21.43;;
67941;SDS011;54731;42.600;23.476;2023-07-31T02:37:39;24.23;;;20.30;;
67941;SDS011;54731;42.600;23.476;2023-07-31T02:40:05;24.93;;;20.20;;
67941;SDS011;54731;42.600;23.476;2023-07-31T02:42:30;26.38;;;20.90;;
67941;SDS011;54731;42.600;23.476;2023-07-31T02:44:55;27.73;;;22.20;;
67941;SDS011;54731;42.600;23.476;2023-07-31T02:47:21;26.73;;;22.33;;
67941;SDS011;54731;42.600;23.476;2023-07-31T02:49:47;25.70;;;21.90;;
67941;SDS011;54731;42.600;23.476;2023-07-31T02:52:12;27.27;;;22.00;;
67941;SDS011;54731;42.600;23.476;2023-07-31T02:54:37;26.13;;;22.27;;
67941;SDS011;54731;42.600;23.476;2023-07-31T02:57:03;24.67;;;21.13;;
67941;SDS011;54731;42.600;23.476;2023-07-31T02:59:28;27.88;;;21.52;;
67941;SDS011;54731;42.600;23.476;2023-07-31T03:01:54;26.10;;;22.37;;
67941;SDS011;54731;42.600;23.476;2023-07-31T03:04:19;25.83;;;21.83;;
67941;SDS011;54731;42.600;23.476;2023-07-31T03:06:44;27.57;;;23.70;;
67941;SDS011;54731;42.600;23.476;2023-07-31T03:09:09;26.70;;;21.50;;
67941;SDS011;54731;42.600;23.476;2023-07-31T03:11:35;27.90;;;22.53;;
67941;SDS011;54731;42.600;23.476;2023-07-31T03:14:00;24.77;;;20.87;;
67941;SDS011;54731;42.600;23.476;2023-07-31T03:16:25;30.13;;;21.73;;
67941;SDS011;54731;42.600;23.476;2023-07-31T03:18:51;25.27;;;21.50;;
67941;SDS011;54731;42.600;23.476;2023-07-31T03:21:16;29.03;;;22.40;;
67941;SDS011;54731;42.600;23.476;2023-07-31T03:23:41;28.50;;;21.88;;
67941;SDS011;54731;42.600;23.476;2023-07-31T03:26:07;27.87;;;21.90;;
67941;SDS011;54731;42.600;23.476;2023-07-31T03:28:32;28.07;;;23.93;;
67941;SDS011;54731;42.600;23.476;2023-07-31T03:30:58;26.38;;;21.98;;
67941;SDS011;54731;42.600;23.476;2023-07-31T03:33:23;28.13;;;23.13;;
67941;SDS011;54731;42.600;23.476;2023-07-31T03:35:48;27.07;;;22.80;;
67941;SDS011;54731;42.600;23.476;2023-07-31T03:38:14;25.63;;;21.67;;
67941;SDS011;54731;42.600;23.476;2023-07-31T03:40:39;26.30;;;21.73;;
67941;SDS011;54731;42.600;23.476;2023-07-31T03:43:05;29.67;;;21.73;;
67941;SDS011;54731;42.600;23.476;2023-07-31T03:45:30;25.63;;;21.73;;
67941;SDS011;54731;42.600;23.476;2023-07-31T03:47:55;27.63;;;22.63;;
67941;SDS011;54731;42.600;23.476;2023-07-31T03:50:21;26.87;;;22.10;;
67941;SDS011;54731;42.600;23.476;2023-07-31T03:52:46;28.13;;;23.23;;
67941;SDS011;54731;42.600;23.476;2023-07-31T03:55:12;26.20;;;21.88;;
67941;SDS011;54731;42.600;23.476;2023-07-31T03:57:37;28.05;;;22.95;;
67941;SDS011;54731;42.600;23.476;2023-07-31T04:00:02;28.17;;;22.80;;
67941;SDS011;54731;42.600;23.476;2023-07-31T04:02:28;30.17;;;22.80;;
67941;SDS011;54731;42.600;23.476;2023-07-31T04:04:53;27.27;;;21.57;;
67941;SDS011;54731;42.600;23.476;2023-07-31T04:07:18;29.23;;;21.37;;
67941;SDS011;54731;42.600;23.476;2023-07-31T04:09:44;27.98;;;23.13;;
67941;SDS011;54731;42.600;23.476;2023-07-31T04:12:09;25.33;;;21.97;;
67941;SDS011;54731;42.600;23.476;2023-07-31T04:14:34;26.90;;;21.53;;
67941;SDS011;54731;42.600;23.476;2023-07-31T04:17:00;28.50;;;21.63;;
67941;SDS011;54731;42.600;23.476;2023-07-31T04:19:25;27.63;;;21.83;;
67941;SDS011;54731;42.600;23.476;2023-07-31T04:21:50;30.93;;;22.30;;
67941;SDS011;54731;42.600;23.476;2023-07-31T04:24:15;31.33;;;22.63;;
67941;SDS011;54731;42.600;23.476;2023-07-31T04:26:41;30.63;;;22.47;;
67941;SDS011;54731;42.600;23.476;2023-07-31T04:29:06;32.03;;;22.00;;
67941;SDS011;54731;42.600;23.476;2023-07-31T04:31:31;32.03;;;21.55;;
67941;SDS011;54731;42.600;23.476;2023-07-31T04:33:57;29.75;;;22.13;;
67941;SDS011;54731;42.600;23.476;2023-07-31T04:36:22;30.97;;;23.47;;
67941;SDS011;54731;42.600;23.476;2023-07-31T04:38:47;30.40;;;23.37;;
67941;SDS011;54731;42.600;23.476;2023-07-31T04:41:13;33.23;;;24.83;;
67941;SDS011;54731;42.600;23.476;2023-07-31T04:43:38;31.10;;;23.00;;
67941;SDS011;54731;42.600;23.476;2023-07-31T04:46:03;31.63;;;25.47;;
67941;SDS011;54731;42.600;23.476;2023-07-31T04:48:28;30.10;;;23.23;;
67941;SDS011;54731;42.600;23.476;2023-07-31T04:50:54;29.70;;;22.33;;
67941;SDS011;54731;42.600;23.476;2023-07-31T04:53:19;30.87;;;22.67;;
67941;SDS011;54731;42.600;23.476;2023-07-31T04:55:44;28.93;;;22.20;;
67941;SDS011;54731;42.600;23.476;2023-07-31T04:58:09;30.67;;;20.92;;
67941;SDS011;54731;42.600;23.476;2023-07-31T05:00:35;28.63;;;20.73;;
67941;SDS011;54731;42.600;23.476;2023-07-31T05:03:00;27.60;;;21.80;;
67941;SDS011;54731;42.600;23.476;2023-07-31T05:05:25;26.63;;;20.40;;
67941;SDS011;54731;42.600;23.476;2023-07-31T05:07:51;26.77;;;20.27;;
67941;SDS011;54731;42.600;23.476;2023-07-31T05:10:16;25.63;;;19.23;;
67941;SDS011;54731;42.600;23.476;2023-07-31T05:12:41;27.27;;;19.43;;
67941;SDS011;54731;42.600;23.476;2023-07-31T05:15:07;24.50;;;19.60;;
67941;SDS011;54731;42.600;23.476;2023-07-31T05:17:33;25.23;;;19.08;;
67941;SDS011;54731;42.600;23.476;2023-07-31T05:19:58;26.70;;;19.70;;
67941;SDS011;54731;42.600;23.476;2023-07-31T05:22:23;22.97;;;18.23;;
67941;SDS011;54731;42.600;23.476;2023-07-31T05:24:48;22.10;;;18.17;;
67941;SDS011;54731;42.600;23.476;2023-07-31T05:27:14;27.63;;;19.00;;
67941;SDS011;54731;42.600;23.476;2023-07-31T05:29:40;25.10;;;18.45;;
67941;SDS011;54731;42.600;23.476;2023-07-31T05:32:05;26.43;;;19.63;;
67941;SDS011;54731;42.600;23.476;2023-07-31T05:34:31;23.60;;;18.73;;
67941;SDS011;54731;42.600;23.476;2023-07-31T05:36:56;24.97;;;18.97;;
67941;SDS011;54731;42.600;23.476;2023-07-31T05:39:22;24.03;;;18.93;;
67941;SDS011;54731;42.600;23.476;2023-07-31T05:41:47;24.47;;;18.37;;
67941;SDS011;54731;42.600;23.476;2023-07-31T05:44:12;23.03;;;17.90;;
67941;SDS011;54731;42.600;23.476;2023-07-31T05:46:37;23.73;;;17.20;;
67941;SDS011;54731;42.600;23.476;2023-07-31T05:49:03;21.40;;;17.40;;
67941;SDS011;54731;42.600;23.476;2023-07-31T05:51:28;19.53;;;16.53;;
67941;SDS011;54731;42.600;23.476;2023-07-31T05:53:53;20.53;;;16.03;;
67941;SDS011;54731;42.600;23.476;2023-07-31T05:56:19;18.00;;;15.37;;
67941;SDS011;54731;42.600;23.476;2023-07-31T05:58:44;18.93;;;15.17;;
67941;SDS011;54731;42.600;23.476;2023-07-31T06:01:09;16.87;;;14.67;;
67941;SDS011;54731;42.600;23.476;2023-07-31T06:03:34;18.07;;;13.70;;
67941;SDS011;54731;42.600;23.476;2023-07-31T06:06:00;17.97;;;14.73;;
67941;SDS011;54731;42.600;23.476;2023-07-31T06:08:25;14.47;;;12.27;;
67941;SDS011;54731;42.600;23.476;2023-07-31T06:10:50;14.02;;;11.48;;
67941;SDS011;54731;42.600;23.476;2023-07-31T06:13:16;13.32;;;11.55;;
67941;SDS011;54731;42.600;23.476;2023-07-31T06:15:41;12.73;;;9.63;;
67941;SDS011;54731;42.600;23.476;2023-07-31T06:18:06;10.70;;;9.47;;
67941;SDS011;54731;42.600;23.476;2023-07-31T06:20:32;11.03;;;9.10;;
67941;SDS011;54731;42.600;23.476;2023-07-31T06:22:57;9.90;;;8.87;;
67941;SDS011;54731;42.600;23.476;2023-07-31T06:25:22;11.57;;;9.30;;
67941;SDS011;54731;42.600;23.476;2023-07-31T06:27:47;12.27;;;8.67;;
67941;SDS011;54731;42.600;23.476;2023-07-31T06:30:13;8.87;;;7.43;;
67941;SDS011;54731;42.600;23.476;2023-07-31T06:32:38;9.27;;;7.90;;
67941;SDS011;54731;42.600;23.476;2023-07-31T06:35:03;7.63;;;6.63;;
67941;SDS011;54731;42.600;23.476;2023-07-31T06:37:29;8.23;;;6.33;;
67941;SDS011;54731;42.600;23.476;2023-07-31T06:39:54;7.47;;;6.77;;
67941;SDS011;54731;42.600;23.476;2023-07-31T06:42:20;6.87;;;6.17;;
67941;SDS011;54731;42.600;23.476;2023-07-31T06:44:45;7.55;;;5.78;;
67941;SDS011;54731;42.600;23.476;2023-07-31T06:47:10;7.68;;;5.90;;
67941;SDS011;54731;42.600;23.476;2023-07-31T06:49:36;7.63;;;6.07;;
67941;SDS011;54731;42.600;23.476;2023-07-31T06:52:01;7.47;;;5.83;;
67941;SDS011;54731;42.600;23.476;2023-07-31T06:54:26;5.77;;;5.17;;
67941;SDS011;54731;42.600;23.476;2023-07-31T06:56:51;5.23;;;4.70;;
67941;SDS011;54731;42.600;23.476;2023-07-31T06:59:17;6.53;;;4.73;;
67941;SDS011;54731;42.600;23.476;2023-07-31T07:01:42;5.60;;;4.37;;
67941;SDS011;54731;42.600;23.476;2023-07-31T07:04:07;6.43;;;4.20;;
67941;SDS011;54731;42.600;23.476;2023-07-31T07:06:33;5.00;;;4.00;;
67941;SDS011;54731;42.600;23.476;2023-07-31T07:08:58;7.07;;;4.23;;
67941;SDS011;54731;42.600;23.476;2023-07-31T07:11:23;7.00;;;5.25;;
67941;SDS011;54731;42.600;23.476;2023-07-31T07:13:48;5.10;;;4.57;;
67941;SDS011;54731;42.600;23.476;2023-07-31T07:16:14;4.80;;;4.20;;
67941;SDS011;54731;42.600;23.476;2023-07-31T07:18:39;6.87;;;4.27;;
67941;SDS011;54731;42.600;23.476;2023-07-31T07:21:04;5.60;;;4.33;;
67941;SDS011;54731;42.600;23.476;2023-07-31T07:23:30;5.43;;;4.23;;
67941;SDS011;54731;42.600;23.476;2023-07-31T07:25:55;4.93;;;4.13;;
67941;SDS011;54731;42.600;23.476;2023-07-31T07:28:20;5.50;;;4.07;;
67941;SDS011;54731;42.600;23.476;2023-07-31T07:30:50;6.77;;;3.77;;
67941;SDS011;54731;42.600;23.476;2023-07-31T07:33:16;5.97;;;3.60;;
67941;SDS011;54731;42.600;23.476;2023-07-31T07:35:41;5.97;;;3.37;;
67941;SDS011;54731;42.600;23.476;2023-07-31T07:38:07;4.60;;;3.13;;
67941;SDS011;54731;42.600;23.476;2023-07-31T07:40:32;3.87;;;3.23;;
67941;SDS011;54731;42.600;23.476;2023-07-31T07:42:57;4.35;;;3.10;;
67941;SDS011;54731;42.600;23.476;2023-07-31T07:45:23;6.10;;;3.27;;
67941;SDS011;54731;42.600;23.476;2023-07-31T07:47:48;6.80;;;3.40;;
67941;SDS011;54731;42.600;23.476;2023-07-31T07:50:13;3.90;;;2.83;;
67941;SDS011;54731;42.600;23.476;2023-07-31T07:52:38;4.40;;;2.50;;
67941;SDS011;54731;42.600;23.476;2023-07-31T07:55:04;3.93;;;2.40;;
67941;SDS011;54731;42.600;23.476;2023-07-31T07:57:30;4.28;;;2.90;;
67941;SDS011;54731;42.600;23.476;2023-07-31T07:59:55;3.37;;;2.47;;
67941;SDS011;54731;42.600;23.476;2023-07-31T08:02:21;3.97;;;2.90;;
67941;SDS011;54731;42.600;23.476;2023-07-31T08:04:47;3.97;;;2.75;;
67941;SDS011;54731;42.600;23.476;2023-07-31T08:07:12;5.53;;;3.23;;
67941;SDS011;54731;42.600;23.476;2023-07-31T08:09:38;8.57;;;3.33;;
67941;SDS011;54731;42.600;23.476;2023-07-31T08:12:04;5.43;;;3.53;;
67941;SDS011;54731;42.600;23.476;2023-07-31T08:14:30;5.60;;;3.13;;
67941;SDS011;54731;42.600;23.476;2023-07-31T08:16:55;4.53;;;3.43;;
67941;SDS011;54731;42.600;23.476;2023-07-31T08:19:20;5.13;;;3.13;;
67941;SDS011;54731;42.600;23.476;2023-07-31T08:21:46;5.20;;;3.37;;
67941;SDS011;54731;42.600;23.476;2023-07-31T08:24:11;8.03;;;2.77;;
67941;SDS011;54731;42.600;23.476;2023-07-31T08:26:36;4.67;;;3.10;;
67941;SDS011;54731;42.600;23.476;2023-07-31T08:29:02;4.85;;;2.70;;
67941;SDS011;54731;42.600;23.476;2023-07-31T08:31:27;4.40;;;2.97;;
67941;SDS011;54731;42.600;23.476;2023-07-31T08:33:52;10.67;;;2.60;;
67941;SDS011;54731;42.600;23.476;2023-07-31T08:36:18;4.60;;;2.37;;
67941;SDS011;54731;42.600;23.476;2023-07-31T08:38:44;3.30;;;2.73;;
67941;SDS011;54731;42.600;23.476;2023-07-31T08:41:10;3.03;;;2.50;;
67941;SDS011;54731;42.600;23.476;2023-07-31T08:43:35;3.77;;;2.60;;
67941;SDS011;54731;42.600;23.476;2023-07-31T08:46:02;6.95;;;2.88;;
67941;SDS011;54731;42.600;23.476;2023-07-31T08:48:27;3.88;;;2.45;;
67941;SDS011;54731;42.600;23.476;2023-07-31T08:50:54;4.55;;;2.70;;
67941;SDS011;54731;42.600;23.476;2023-07-31T08:53:19;5.77;;;2.57;;
67941;SDS011;54731;42.600;23.476;2023-07-31T08:55:45;6.28;;;3.17;;
67941;SDS011;54731;42.600;23.476;2023-07-31T08:58:12;3.97;;;2.53;;
67941;SDS011;54731;42.600;23.476;2023-07-31T09:00:38;3.30;;;2.58;;
67941;SDS011;54731;42.600;23.476;2023-07-31T09:03:15;4.35;;;2.60;;
67941;SDS011;54731;42.600;23.476;2023-07-31T09:05:46;3.40;;;2.60;;
67941;SDS011;54731;42.600;23.476;2023-07-31T09:08:12;3.08;;;2.40;;
67941;SDS011;54731;42.600;23.476;2023-07-31T09:10:45;4.82;;;2.83;;
67941;SDS011;54731;42.600;23.476;2023-07-31T09:13:11;3.45;;;2.40;;
67941;SDS011;54731;42.600;23.476;2023-07-31T09:15:40;2.92;;;2.53;;
67941;SDS011;54731;42.600;23.476;2023-07-31T09:18:07;5.65;;;3.28;;
67941;SDS011;54731;42.600;23.476;2023-07-31T09:20:33;7.43;;;2.78;;
67941;SDS011;54731;42.600;23.476;2023-07-31T09:23:05;3.22;;;2.53;;
67941;SDS011;54731;42.600;23.476;2023-07-31T09:25:31;5.32;;;2.50;;
67941;SDS011;54731;42.600;23.476;2023-07-31T09:28:03;6.63;;;2.80;;
67941;SDS011;54731;42.600;23.476;2023-07-31T09:30:49;6.00;;;3.38;;
67941;SDS011;54731;42.600;23.476;2023-07-31T09:33:16;4.93;;;2.70;;
67941;SDS011;54731;42.600;23.476;2023-07-31T09:35:42;3.83;;;2.75;;
67941;SDS011;54731;42.600;23.476;2023-07-31T09:38:14;4.23;;;2.77;;
67941;SDS011;54731;42.600;23.476;2023-07-31T09:40:41;4.22;;;2.80;;
67941;SDS011;54731;42.600;23.476;2023-07-31T09:43:09;3.33;;;2.65;;
67941;SDS011;54731;42.600;23.476;2023-07-31T09:45:37;6.07;;;2.65;;
67941;SDS011;54731;42.600;23.476;2023-07-31T09:48:13;4.20;;;3.13;;
67941;SDS011;54731;42.600;23.476;2023-07-31T09:50:43;4.10;;;2.72;;
67941;SDS011;54731;42.600;23.476;2023-07-31T09:53:12;6.75;;;3.00;;
67941;SDS011;54731;42.600;23.476;2023-07-31T09:55:39;5.07;;;3.33;;
67941;SDS011;54731;42.600;23.476;2023-07-31T09:58:08;3.63;;;2.53;;
67941;SDS011;54731;42.600;23.476;2023-07-31T10:00:35;3.70;;;2.60;;
67941;SDS011;54731;42.600;23.476;2023-07-31T10:03:02;3.80;;;2.63;;
67941;SDS011;54731;42.600;23.476;2023-07-31T10:05:34;4.20;;;2.88;;
67941;SDS011;54731;42.600;23.476;2023-07-31T10:08:00;4.20;;;2.97;;
67941;SDS011;54731;42.600;23.476;2023-07-31T10:10:26;3.33;;;3.00;;
67941;SDS011;54731;42.600;23.476;2023-07-31T10:12:52;3.30;;;2.55;;
67941;SDS011;54731;42.600;23.476;2023-07-31T10:15:18;4.17;;;2.93;;
67941;SDS011;54731;42.600;23.476;2023-07-31T10:17:44;3.95;;;2.60;;
67941;SDS011;54731;42.600;23.476;2023-07-31T10:20:12;4.32;;;2.95;;
67941;SDS011;54731;42.600;23.476;2023-07-31T10:22:39;4.00;;;3.03;;
67941;SDS011;54731;42.600;23.476;2023-07-31T10:25:05;6.63;;;3.00;;
67941;SDS011;54731;42.600;23.476;2023-07-31T10:27:34;3.13;;;2.80;;
67941;SDS011;54731;42.600;23.476;2023-07-31T10:30:00;4.43;;;3.30;;
67941;SDS011;54731;42.600;23.476;2023-07-31T10:32:28;5.80;;;2.78;;
67941;SDS011;54731;42.600;23.476;2023-07-31T10:34:54;6.03;;;3.00;;
67941;SDS011;54731;42.600;23.476;2023-07-31T10:39:46;5.43;;;2.60;;
67941;SDS011;54731;42.600;23.476;2023-07-31T10:42:21;3.47;;;2.50;;
67941;SDS011;54731;42.600;23.476;2023-07-31T10:44:54;3.65;;;2.75;;
67941;SDS011;54731;42.600;23.476;2023-07-31T10:47:22;4.78;;;2.22;;
67941;SDS011;54731;42.600;23.476;2023-07-31T10:49:47;4.00;;;2.27;;
67941;SDS011;54731;42.600;23.476;2023-07-31T10:52:13;4.03;;;2.60;;
67941;SDS011;54731;42.600;23.476;2023-07-31T10:54:38;3.78;;;2.22;;
67941;SDS011;54731;42.600;23.476;2023-07-31T10:57:18;3.57;;;2.23;;
67941;SDS011;54731;42.600;23.476;2023-07-31T10:59:47;3.30;;;2.35;;
67941;SDS011;54731;42.600;23.476;2023-07-31T11:02:26;2.50;;;2.30;;
67941;SDS011;54731;42.600;23.476;2023-07-31T11:05:10;4.23;;;2.33;;
67941;SDS011;54731;42.600;23.476;2023-07-31T11:07:46;3.22;;;1.88;;
67941;SDS011;54731;42.600;23.476;2023-07-31T11:10:11;5.05;;;2.22;;
67941;SDS011;54731;42.600;23.476;2023-07-31T11:12:41;5.57;;;2.08;;
67941;SDS011;54731;42.600;23.476;2023-07-31T11:15:06;2.20;;;1.80;;
67941;SDS011;54731;42.600;23.476;2023-07-31T11:17:32;2.97;;;1.88;;
67941;SDS011;54731;42.600;23.476;2023-07-31T11:19:57;3.33;;;2.10;;
67941;SDS011;54731;42.600;23.476;2023-07-31T11:22:23;4.33;;;2.20;;
67941;SDS011;54731;42.600;23.476;2023-07-31T11:24:48;4.73;;;1.80;;
67941;SDS011;54731;42.600;23.476;2023-07-31T11:27:14;3.80;;;1.87;;
67941;SDS011;54731;42.600;23.476;2023-07-31T11:29:39;2.83;;;1.83;;
67941;SDS011;54731;42.600;23.476;2023-07-31T11:32:04;2.80;;;2.00;;
67941;SDS011;54731;42.600;23.476;2023-07-31T11:34:30;4.25;;;2.28;;
67941;SDS011;54731;42.600;23.476;2023-07-31T11:36:55;3.23;;;2.60;;
67941;SDS011;54731;42.600;23.476;2023-07-31T11:39:20;2.70;;;1.90;;
67941;SDS011;54731;42.600;23.476;2023-07-31T11:41:45;3.17;;;2.20;;
67941;SDS011;54731;42.600;23.476;2023-07-31T11:44:11;3.53;;;2.13;;
67941;SDS011;54731;42.600;23.476;2023-07-31T11:46:36;6.00;;;1.90;;
67941;SDS011;54731;42.600;23.476;2023-07-31T11:49:03;1.88;;;1.67;;
67941;SDS011;54731;42.600;23.476;2023-07-31T11:51:29;2.50;;;2.30;;
67941;SDS011;54731;42.600;23.476;2023-07-31T11:53:55;3.75;;;1.80;;
67941;SDS011;54731;42.600;23.476;2023-07-31T11:56:23;3.57;;;2.07;;
67941;SDS011;54731;42.600;23.476;2023-07-31T11:58:51;1.92;;;1.73;;
67941;SDS011;54731;42.600;23.476;2023-07-31T12:01:20;3.08;;;1.70;;
67941;SDS011;54731;42.600;23.476;2023-07-31T12:03:47;3.08;;;1.90;;
67941;SDS011;54731;42.600;23.476;2023-07-31T12:06:13;2.97;;;1.92;;
67941;SDS011;54731;42.600;23.476;2023-07-31T12:08:38;4.17;;;1.97;;
67941;SDS011;54731;42.600;23.476;2023-07-31T12:11:04;2.27;;;1.97;;
67941;SDS011;54731;42.600;23.476;2023-07-31T12:13:31;2.00;;;1.80;;
67941;SDS011;54731;42.600;23.476;2023-07-31T12:16:01;2.83;;;2.13;;
67941;SDS011;54731;42.600;23.476;2023-07-31T12:18:30;4.50;;;2.17;;
67941;SDS011;54731;42.600;23.476;2023-07-31T12:21:00;2.92;;;2.20;;
67941;SDS011;54731;42.600;23.476;2023-07-31T12:23:27;4.05;;;2.40;;
67941;SDS011;54731;42.600;23.476;2023-07-31T12:26:00;3.00;;;2.63;;
67941;SDS011;54731;42.600;23.476;2023-07-31T12:28:28;3.73;;;2.30;;
67941;SDS011;54731;42.600;23.476;2023-07-31T12:30:56;6.72;;;2.28;;
67941;SDS011;54731;42.600;23.476;2023-07-31T12:33:22;4.57;;;2.30;;
67941;SDS011;54731;42.600;23.476;2023-07-31T12:35:48;5.07;;;2.63;;
67941;SDS011;54731;42.600;23.476;2023-07-31T12:38:13;3.78;;;3.08;;
67941;SDS011;54731;42.600;23.476;2023-07-31T12:40:39;4.63;;;3.20;;
67941;SDS011;54731;42.600;23.476;2023-07-31T12:43:09;3.25;;;2.95;;
67941;SDS011;54731;42.600;23.476;2023-07-31T12:45:34;3.77;;;3.00;;
67941;SDS011;54731;42.600;23.476;2023-07-31T12:48:00;4.95;;;2.85;;
67941;SDS011;54731;42.600;23.476;2023-07-31T12:50:26;3.65;;;2.72;;
67941;SDS011;54731;42.600;23.476;2023-07-31T12:52:53;4.17;;;3.57;;
67941;SDS011;54731;42.600;23.476;2023-07-31T12:55:18;4.65;;;3.88;;
67941;SDS011;54731;42.600;23.476;2023-07-31T12:57:44;4.63;;;3.73;;
67941;SDS011;54731;42.600;23.476;2023-07-31T13:00:09;6.57;;;4.23;;
67941;SDS011;54731;42.600;23.476;2023-07-31T13:02:35;4.78;;;4.22;;
67941;SDS011;54731;42.600;23.476;2023-07-31T13:05:00;5.53;;;5.03;;
67941;SDS011;54731;42.600;23.476;2023-07-31T13:07:26;7.17;;;5.03;;
67941;SDS011;54731;42.600;23.476;2023-07-31T13:09:51;8.55;;;4.70;;
67941;SDS011;54731;42.600;23.476;2023-07-31T13:12:17;4.37;;;3.93;;
67941;SDS011;54731;42.600;23.476;2023-07-31T13:14:42;4.90;;;4.40;;
67941;SDS011;54731;42.600;23.476;2023-07-31T13:17:07;4.20;;;3.80;;
67941;SDS011;54731;42.600;23.476;2023-07-31T13:19:33;4.57;;;4.17;;
67941;SDS011;54731;42.600;23.476;2023-07-31T13:21:58;4.63;;;4.23;;
67941;SDS011;54731;42.600;23.476;2023-07-31T13:24:23;4.90;;;4.40;;
67941;SDS011;54731;42.600;23.476;2023-07-31T13:26:48;5.77;;;4.67;;
67941;SDS011;54731;42.600;23.476;2023-07-31T13:29:14;5.13;;;4.60;;
67941;SDS011;54731;42.600;23.476;2023-07-31T13:31:39;5.40;;;4.65;;
67941;SDS011;54731;42.600;23.476;2023-07-31T13:34:04;5.83;;;4.87;;
67941;SDS011;54731;42.600;23.476;2023-07-31T13:36:29;5.30;;;4.80;;
67941;SDS011;54731;42.600;23.476;2023-07-31T13:38:55;5.47;;;4.97;;
67941;SDS011;54731;42.600;23.476;2023-07-31T13:41:20;5.00;;;4.60;;
67941;SDS011;54731;42.600;23.476;2023-07-31T13:43:45;5.40;;;4.90;;
67941;SDS011;54731;42.600;23.476;2023-07-31T13:46:11;5.47;;;4.97;;
67941;SDS011;54731;42.600;23.476;2023-07-31T13:48:36;6.20;;;5.60;;
67941;SDS011;54731;42.600;23.476;2023-07-31T13:51:02;5.60;;;4.93;;
67941;SDS011;54731;42.600;23.476;2023-07-31T13:53:27;10.02;;;5.18;;
67941;SDS011;54731;42.600;23.476;2023-07-31T13:55:52;8.90;;;4.97;;
67941;SDS011;54731;42.600;23.476;2023-07-31T13:58:18;6.17;;;4.50;;
67941;SDS011;54731;42.600;23.476;2023-07-31T14:00:43;7.70;;;4.40;;
67941;SDS011;54731;42.600;23.476;2023-07-31T14:03:08;5.27;;;4.77;;
67941;SDS011;54731;42.600;23.476;2023-07-31T14:05:34;9.30;;;4.90;;
67941;SDS011;54731;42.600;23.476;2023-07-31T14:07:59;4.93;;;4.00;;
67941;SDS011;54731;42.600;23.476;2023-07-31T14:10:24;9.02;;;4.63;;
67941;SDS011;54731;42.600;23.476;2023-07-31T14:12:50;7.13;;;4.77;;
67941;SDS011;54731;42.600;23.476;2023-07-31T14:15:15;6.47;;;5.10;;
67941;SDS011;54731;42.600;23.476;2023-07-31T14:17:40;5.63;;;4.77;;
67941;SDS011;54731;42.600;23.476;2023-07-31T14:20:06;7.63;;;4.67;;
67941;SDS011;54731;42.600;23.476;2023-07-31T14:22:32;6.07;;;4.25;;
67941;SDS011;54731;42.600;23.476;2023-07-31T14:24:57;6.07;;;4.23;;
67941;SDS011;54731;42.600;23.476;2023-07-31T14:27:22;4.83;;;4.43;;
67941;SDS011;54731;42.600;23.476;2023-07-31T14:29:47;5.47;;;4.30;;
67941;SDS011;54731;42.600;23.476;2023-07-31T14:32:13;7.33;;;4.37;;